createdAt,value
2023-05-26T00:00:48.518Z,6.96
2023-05-26T00:03:15.527Z,6.95
2023-05-26T00:05:42.275Z,6.93
2023-05-26T00:08:09.088Z,6.92
2023-05-26T00:10:35.774Z,6.87
2023-05-26T00:13:02.825Z,6.85
2023-05-26T00:15:29.579Z,6.80
2023-05-26T00:17:57.623Z,6.79
2023-05-26T00:20:24.493Z,6.75
2023-05-26T00:22:51.165Z,6.72
2023-05-26T00:25:17.893Z,6.68
2023-05-26T00:27:44.413Z,6.63
2023-05-26T00:30:12.013Z,6.58
2023-05-26T00:32:38.692Z,6.52
2023-05-26T00:35:07.860Z,6.48
2023-05-26T00:37:34.604Z,6.48
2023-05-26T00:40:01.170Z,6.45
2023-05-26T00:42:27.939Z,6.39
2023-05-26T00:44:54.490Z,6.40
2023-05-26T00:47:21.133Z,6.36
2023-05-26T00:49:49.447Z,6.33
2023-05-26T00:52:18.554Z,6.32
2023-05-26T00:54:45.488Z,6.33
2023-05-26T00:57:12.418Z,6.31
2023-05-26T00:59:39.112Z,6.26
2023-05-26T01:02:06.215Z,6.22
2023-05-26T01:04:32.764Z,6.18
2023-05-26T01:06:59.339Z,6.11
2023-05-26T01:09:27.370Z,6.06
2023-05-26T01:11:58.952Z,6.03
2023-05-26T01:14:30.270Z,5.96
2023-05-26T01:17:00.416Z,5.95
2023-05-26T01:19:55.835Z,5.92
2023-05-26T01:22:37.584Z,5.84
2023-05-26T01:25:16.935Z,5.78
2023-05-26T01:27:50.676Z,5.73
2023-05-26T01:30:19.436Z,5.73
2023-05-26T01:32:49.403Z,5.70
2023-05-26T01:35:16.081Z,5.67
2023-05-26T01:37:44.267Z,5.64
2023-05-26T01:40:12.518Z,5.59
2023-05-26T01:42:42.608Z,5.57
2023-05-26T01:45:13.538Z,5.54
2023-05-26T01:47:43.171Z,5.48
2023-05-26T01:50:12.365Z,5.45
2023-05-26T01:52:42.923Z,5.41
2023-05-26T01:55:11.993Z,5.38
2023-05-26T01:57:39.685Z,5.35
2023-05-26T02:00:07.668Z,5.33
2023-05-26T02:02:34.278Z,5.28
2023-05-26T02:05:02.229Z,5.26
2023-05-26T02:07:28.808Z,5.25
2023-05-26T02:09:55.333Z,5.23
2023-05-26T02:12:22.134Z,5.17
2023-05-26T02:14:48.702Z,5.14
2023-05-26T02:17:15.537Z,5.09
2023-05-26T02:19:42.045Z,5.03
2023-05-26T02:22:10.106Z,4.99
2023-05-26T02:24:36.610Z,5.00
2023-05-26T02:27:03.388Z,4.95
2023-05-26T02:29:29.880Z,4.92
2023-05-26T02:31:56.442Z,4.89
2023-05-26T02:34:22.976Z,4.85
2023-05-26T02:36:49.656Z,4.83
2023-05-26T02:39:17.547Z,4.79
2023-05-26T02:41:44.101Z,4.77
2023-05-26T02:44:10.627Z,4.73
2023-05-26T02:46:37.139Z,4.74
2023-05-26T02:49:03.722Z,4.73
2023-05-26T02:51:30.428Z,4.70
2023-05-26T02:53:57.012Z,4.64
2023-05-26T02:56:24.927Z,4.60
2023-05-26T02:58:51.461Z,4.55
2023-05-26T03:01:18.341Z,4.53
2023-05-26T03:03:45.110Z,4.49
2023-05-26T03:06:11.706Z,4.45
2023-05-26T03:08:38.194Z,4.42
2023-05-26T03:11:09.249Z,4.39
2023-05-26T03:13:39.128Z,4.35
2023-05-26T03:16:06.267Z,4.33
2023-05-26T03:18:32.783Z,4.30
2023-05-26T03:20:59.359Z,4.27
2023-05-26T03:23:25.914Z,4.24
2023-05-26T03:25:52.668Z,4.24
2023-05-26T03:28:19.191Z,4.20
2023-05-26T03:30:47.238Z,4.18
2023-05-26T03:33:13.783Z,4.18
2023-05-26T03:35:40.287Z,4.16
2023-05-26T03:38:06.933Z,4.17
2023-05-26T03:40:33.424Z,4.19
2023-05-26T03:42:59.978Z,4.17
2023-05-26T03:45:26.692Z,4.13
2023-05-26T03:47:54.731Z,4.15
2023-05-26T03:50:21.503Z,4.13
2023-05-26T03:52:49.122Z,4.12
2023-05-26T03:55:15.732Z,4.10
2023-05-26T03:57:42.303Z,4.13
2023-05-26T04:00:10.217Z,4.16
2023-05-26T04:02:37.176Z,4.19
2023-05-26T04:05:05.979Z,4.20
2023-05-26T04:07:32.731Z,4.21
2023-05-26T04:09:59.300Z,4.25
2023-05-26T04:12:25.992Z,4.27
2023-05-26T04:14:52.557Z,4.30
2023-05-26T04:17:19.175Z,4.33
2023-05-26T04:19:45.757Z,4.35
2023-05-26T04:22:13.692Z,4.39
2023-05-26T04:24:40.250Z,4.44
2023-05-26T04:27:06.783Z,4.48
2023-05-26T04:29:33.384Z,4.52
2023-05-26T04:31:59.967Z,4.58
2023-05-26T04:34:26.572Z,4.64
2023-05-26T04:36:53.206Z,4.67
2023-05-26T04:39:21.302Z,4.75
2023-05-26T04:41:47.909Z,4.82
2023-05-26T04:44:14.456Z,4.87
2023-05-26T04:46:41.100Z,4.99
2023-05-26T04:49:07.824Z,5.11
2023-05-26T04:51:34.594Z,5.24
2023-05-26T04:54:01.130Z,5.31
2023-05-26T04:56:29.164Z,5.39
2023-05-26T04:58:55.723Z,5.47
2023-05-26T05:01:22.435Z,5.59
2023-05-26T05:03:48.990Z,5.63
2023-05-26T05:06:15.593Z,5.80
2023-05-26T05:08:42.735Z,5.87
2023-05-26T05:11:09.248Z,5.94
2023-05-26T05:13:37.311Z,6.03
2023-05-26T05:16:03.972Z,6.21
2023-05-26T05:18:30.660Z,6.38
2023-05-26T05:20:57.212Z,6.43
2023-05-26T05:23:23.775Z,6.45
2023-05-26T05:25:50.273Z,6.59
2023-05-26T05:28:16.842Z,6.72
2023-05-26T05:30:46.512Z,6.85
2023-05-26T05:33:13.485Z,7.08
2023-05-26T05:35:40.222Z,7.27
2023-05-26T05:38:06.803Z,7.42
2023-05-26T05:40:33.832Z,7.61
2023-05-26T05:43:00.691Z,7.76
2023-05-26T05:45:27.322Z,7.86
2023-05-26T05:47:55.324Z,7.89
2023-05-26T05:50:21.954Z,7.92
2023-05-26T05:52:48.464Z,8.05
2023-05-26T05:55:15.046Z,8.29
2023-05-26T05:57:41.652Z,8.50
2023-05-26T06:00:09.178Z,8.70
2023-05-26T06:02:35.789Z,9.06
2023-05-26T06:05:04.372Z,9.38
2023-05-26T06:07:31.034Z,9.48
2023-05-26T06:09:57.576Z,9.73
2023-05-26T06:12:24.393Z,9.96
2023-05-26T06:14:51.016Z,9.67
2023-05-26T06:17:17.614Z,9.78
2023-05-26T06:19:44.230Z,9.69
2023-05-26T06:22:12.271Z,9.48
2023-05-26T06:24:38.799Z,9.34
2023-05-26T06:27:05.534Z,9.40
2023-05-26T06:29:32.266Z,9.48
2023-05-26T06:31:58.840Z,9.64
2023-05-26T06:34:25.372Z,9.55
2023-05-26T06:36:51.921Z,9.43
2023-05-26T06:39:19.799Z,9.45
2023-05-26T06:41:46.406Z,9.48
2023-05-26T06:44:13.496Z,9.56
2023-05-26T06:46:40.083Z,9.63
2023-05-26T06:49:06.659Z,9.64
2023-05-26T06:51:33.206Z,9.75
2023-05-26T06:53:59.764Z,9.72
2023-05-26T06:56:27.704Z,9.72
2023-05-26T06:58:54.333Z,9.85
2023-05-26T07:01:21.063Z,9.94
2023-05-26T07:03:47.689Z,10.06
2023-05-26T07:06:14.320Z,10.11
2023-05-26T07:08:41.166Z,10.14
2023-05-26T07:11:07.759Z,10.24
2023-05-26T07:13:35.645Z,10.13
2023-05-26T07:16:02.257Z,10.13
2023-05-26T07:18:28.792Z,10.23
2023-05-26T07:20:55.432Z,10.30
2023-05-26T07:23:22.108Z,10.41
2023-05-26T07:25:48.682Z,10.54
2023-05-26T07:28:15.208Z,10.68
2023-05-26T07:30:43.204Z,11.04
2023-05-26T07:33:09.998Z,11.20
2023-05-26T07:35:36.700Z,11.48
2023-05-26T07:38:03.294Z,11.73
2023-05-26T07:40:29.865Z,11.90
2023-05-26T07:42:56.516Z,12.07
2023-05-26T07:45:23.116Z,12.30
2023-05-26T07:47:51.179Z,12.74
2023-05-26T07:50:17.785Z,12.94
2023-05-26T07:52:44.504Z,12.84
2023-05-26T07:55:11.263Z,12.84
2023-05-26T07:57:37.830Z,13.02
2023-05-26T08:00:05.191Z,13.31
2023-05-26T08:02:31.871Z,13.44
2023-05-26T08:04:59.862Z,13.60
2023-05-26T08:07:26.585Z,13.45
2023-05-26T08:09:53.204Z,13.39
2023-05-26T08:12:19.831Z,13.28
2023-05-26T08:14:46.348Z,13.43
2023-05-26T08:17:12.916Z,13.51
2023-05-26T08:19:39.536Z,13.83
2023-05-26T08:22:07.477Z,14.09
2023-05-26T08:24:34.293Z,14.54
2023-05-26T08:27:00.833Z,14.98
2023-05-26T08:29:27.573Z,15.51
2023-05-26T08:31:54.258Z,15.64
2023-05-26T08:34:20.859Z,15.78
2023-05-26T08:36:48.053Z,16.21
2023-05-26T08:39:15.944Z,15.95
2023-05-26T08:41:48.427Z,16.26
2023-05-26T08:44:17.210Z,16.37
2023-05-26T08:46:45.427Z,16.31
2023-05-26T08:49:15.395Z,16.59
2023-05-26T08:51:45.302Z,16.38
2023-05-26T08:54:11.972Z,16.51
2023-05-26T08:56:40.042Z,16.97
2023-05-26T08:59:07.835Z,16.95
2023-05-26T09:01:34.544Z,17.09
2023-05-26T09:04:01.152Z,17.38
2023-05-26T09:06:27.905Z,17.27
2023-05-26T09:08:54.523Z,17.32
2023-05-26T09:11:23.486Z,17.31
2023-05-26T09:13:55.625Z,17.50
2023-05-26T09:16:24.132Z,17.96
2023-05-26T09:18:55.011Z,18.38
2023-05-26T09:21:21.639Z,18.53
2023-05-26T09:23:53.588Z,18.16
2023-05-26T09:26:20.152Z,17.90
2023-05-26T09:28:48.546Z,17.43
2023-05-26T09:31:16.765Z,17.33
2023-05-26T09:33:45.328Z,17.88
2023-05-26T09:36:12.236Z,18.24
2023-05-26T09:38:38.887Z,18.41
2023-05-26T09:41:05.501Z,18.70
2023-05-26T09:43:34.140Z,18.88
2023-05-26T09:46:00.952Z,18.96
2023-05-26T09:48:33.680Z,19.21
2023-05-26T09:51:00.287Z,19.42
2023-05-26T09:53:27.271Z,19.77
2023-05-26T09:55:56.709Z,19.89
2023-05-26T09:58:24.805Z,19.63
2023-05-26T10:00:54.415Z,19.88
2023-05-26T10:03:22.106Z,19.85
2023-05-26T10:05:52.485Z,19.92
2023-05-26T10:08:20.391Z,20.24
2023-05-26T10:10:49.984Z,20.32
2023-05-26T10:13:16.709Z,20.56
2023-05-26T10:15:43.958Z,20.62
2023-05-26T10:18:10.679Z,20.31
2023-05-26T10:20:37.738Z,20.11
2023-05-26T10:23:08.518Z,19.78
2023-05-26T10:25:51.073Z,19.76
2023-05-26T10:28:26.441Z,20.78
2023-05-26T10:30:58.648Z,20.92
2023-05-26T10:33:38.193Z,20.91
2023-05-26T10:36:07.930Z,21.47
2023-05-26T10:38:38.599Z,21.83
2023-05-26T10:41:10.078Z,21.57
2023-05-26T10:43:37.204Z,21.51
2023-05-26T10:46:04.886Z,21.75
2023-05-26T10:48:35.215Z,21.81
2023-05-26T10:51:09.337Z,21.94
2023-05-26T10:53:41.678Z,21.79
2023-05-26T10:56:09.785Z,21.60
2023-05-26T10:58:37.654Z,21.37
2023-05-26T11:01:05.791Z,21.64
2023-05-26T11:03:34.068Z,21.70
2023-05-26T11:06:00.824Z,22.20
2023-05-26T11:08:27.399Z,22.30
2023-05-26T11:11:02.314Z,22.36
2023-05-26T11:13:47.049Z,23.14
2023-05-26T11:16:18.207Z,23.65
2023-05-26T11:18:55.822Z,22.87
2023-05-26T11:21:26.812Z,22.25
2023-05-26T11:23:54.761Z,22.66
2023-05-26T11:26:23.938Z,22.81
2023-05-26T11:28:51.609Z,22.49
2023-05-26T11:31:19.953Z,22.91
2023-05-26T11:33:47.995Z,22.99
2023-05-26T11:36:15.577Z,23.38
2023-05-26T11:38:43.603Z,22.82
2023-05-26T11:41:11.807Z,22.49
2023-05-26T11:43:40.438Z,23.38
2023-05-26T11:46:08.938Z,23.41
2023-05-26T11:48:37.334Z,23.72
2023-05-26T11:51:08.850Z,22.99
2023-05-26T11:53:35.870Z,23.26
2023-05-26T11:56:03.910Z,24.33
2023-05-26T11:58:32.982Z,23.69
2023-05-26T12:01:02.595Z,23.77
2023-05-26T12:03:29.507Z,23.47
2023-05-26T12:06:06.228Z,23.16
2023-05-26T12:08:43.446Z,22.79
2023-05-26T12:11:13.911Z,22.86
2023-05-26T12:13:40.552Z,23.31
2023-05-26T12:16:20.891Z,22.98
2023-05-26T12:18:47.620Z,22.97
2023-05-26T12:21:14.224Z,24.06
2023-05-26T12:23:41.150Z,24.34
2023-05-26T12:26:14.393Z,24.39
2023-05-26T12:28:41.007Z,24.35
2023-05-26T12:31:07.774Z,24.56
2023-05-26T12:33:36.002Z,24.04
2023-05-26T12:36:02.717Z,24.52
2023-05-26T12:38:39.983Z,24.87
2023-05-26T12:41:06.580Z,25.18
2023-05-26T12:43:34.414Z,25.43
2023-05-26T12:46:01.059Z,26.05
2023-05-26T12:48:27.826Z,26.30
2023-05-26T12:50:55.960Z,26.43
2023-05-26T12:53:22.667Z,26.43
2023-05-26T12:55:49.220Z,26.34
2023-05-26T12:58:15.788Z,24.89
2023-05-26T13:00:42.351Z,25.31
2023-05-26T13:03:08.967Z,25.80
2023-05-26T13:05:35.648Z,26.01
2023-05-26T13:08:03.606Z,24.95
2023-05-26T13:10:30.158Z,25.03
2023-05-26T13:12:56.814Z,25.44
2023-05-26T13:15:23.376Z,25.06
2023-05-26T13:17:49.977Z,25.60
2023-05-26T13:20:16.653Z,25.06
2023-05-26T13:22:43.222Z,25.47
2023-05-26T13:25:12.443Z,25.45
2023-05-26T13:27:39.007Z,25.02
2023-05-26T13:30:07.002Z,25.80
2023-05-26T13:32:33.629Z,25.27
2023-05-26T13:35:00.245Z,25.14
2023-05-26T13:37:26.806Z,25.61
2023-05-26T13:39:54.628Z,25.10
2023-05-26T13:42:23.183Z,24.87
2023-05-26T13:44:49.735Z,24.90
2023-05-26T13:47:16.414Z,24.61
2023-05-26T13:49:43.223Z,24.96
2023-05-26T13:52:09.799Z,25.27
2023-05-26T13:54:36.384Z,25.00
2023-05-26T13:57:02.937Z,25.34
2023-05-26T13:59:30.814Z,25.69
2023-05-26T14:01:57.357Z,25.73
2023-05-26T14:04:24.040Z,25.58
2023-05-26T14:06:50.920Z,24.19
2023-05-26T14:09:18.761Z,24.03
2023-05-26T14:11:45.404Z,24.94
2023-05-26T14:14:11.989Z,24.93
2023-05-26T14:16:39.930Z,25.55
2023-05-26T14:19:12.409Z,25.49
2023-05-26T14:22:10.114Z,25.69
2023-05-26T14:24:30.217Z,25.09
2023-05-26T14:26:56.946Z,25.20
2023-05-26T14:29:23.831Z,25.26
2023-05-26T14:31:51.886Z,24.72
2023-05-26T14:34:18.589Z,24.87
2023-05-26T14:36:45.287Z,25.10
2023-05-26T14:39:11.919Z,24.93
2023-05-26T14:41:38.685Z,24.60
2023-05-26T14:44:05.213Z,24.39
2023-05-26T14:46:31.930Z,24.97
2023-05-26T14:49:00.040Z,25.08
2023-05-26T14:51:26.734Z,25.18
2023-05-26T14:53:53.307Z,24.92
2023-05-26T14:56:19.823Z,25.58
2023-05-26T14:58:46.419Z,25.54
2023-05-26T15:01:12.989Z,24.69
2023-05-26T15:03:55.884Z,25.63
2023-05-26T15:06:27.424Z,25.17
2023-05-26T15:08:54.003Z,24.88
2023-05-26T15:11:20.585Z,24.97
2023-05-26T15:13:47.195Z,25.05
2023-05-26T15:16:13.941Z,24.26
2023-05-26T15:18:40.479Z,25.03
2023-05-26T15:21:07.290Z,25.15
2023-05-26T15:23:35.235Z,24.86
2023-05-26T15:26:01.794Z,25.44
2023-05-26T15:28:28.401Z,24.88
2023-05-26T15:30:55.492Z,24.93
2023-05-26T15:33:22.826Z,24.54
2023-05-26T15:35:50.307Z,25.08
2023-05-26T15:38:17.220Z,25.52
2023-05-26T15:40:46.274Z,24.98
2023-05-26T15:43:13.009Z,24.62
2023-05-26T15:45:39.639Z,24.10
2023-05-26T15:48:06.439Z,23.79
2023-05-26T15:50:33.159Z,24.13
2023-05-26T15:52:59.759Z,24.34
2023-05-26T15:55:26.280Z,24.78
2023-05-26T15:57:54.153Z,25.02
2023-05-26T16:00:20.869Z,25.05
2023-05-26T16:02:47.390Z,25.16
2023-05-26T16:05:14.590Z,25.59
2023-05-26T16:07:41.153Z,24.24
2023-05-26T16:10:10.000Z,24.37
2023-05-26T16:12:37.783Z,23.76
2023-05-26T16:15:06.826Z,23.56
2023-05-26T16:17:33.492Z,22.95
2023-05-26T16:20:00.099Z,23.32
2023-05-26T16:22:26.766Z,23.49
2023-05-26T16:24:53.293Z,23.41
2023-05-26T16:27:19.980Z,23.51
2023-05-26T16:29:46.528Z,23.68
2023-05-26T16:32:14.541Z,23.26
2023-05-26T16:34:41.127Z,22.59
2023-05-26T16:37:07.736Z,23.11
2023-05-26T16:39:34.331Z,22.87
2023-05-26T16:42:01.013Z,23.64
2023-05-26T16:44:27.580Z,23.80
2023-05-26T16:46:54.180Z,23.50
2023-05-26T16:49:22.163Z,22.54
2023-05-26T16:51:48.949Z,22.47
2023-05-26T16:54:15.480Z,21.92
2023-05-26T16:56:42.007Z,21.76
2023-05-26T16:59:08.733Z,21.61
2023-05-26T17:01:35.359Z,22.29
2023-05-26T17:04:01.989Z,22.15
2023-05-26T17:06:29.915Z,22.42
2023-05-26T17:08:56.628Z,22.68
2023-05-26T17:11:23.149Z,22.68
2023-05-26T17:13:49.741Z,22.97
2023-05-26T17:16:16.475Z,22.88
2023-05-26T17:18:42.988Z,22.55
2023-05-26T17:21:09.550Z,22.34
2023-05-26T17:23:37.618Z,21.96
2023-05-26T17:26:04.844Z,21.52
2023-05-26T17:28:31.592Z,21.46
2023-05-26T17:30:58.294Z,21.45
2023-05-26T17:33:25.179Z,21.44
2023-05-26T17:35:51.765Z,21.39
2023-05-26T17:38:18.420Z,21.03
2023-05-26T17:40:46.331Z,21.06
2023-05-26T17:43:13.029Z,20.96
2023-05-26T17:45:39.563Z,20.90
2023-05-26T17:48:06.162Z,20.46
2023-05-26T17:50:32.793Z,20.06
2023-05-26T17:52:59.440Z,19.83
2023-05-26T17:55:26.036Z,19.68
2023-05-26T17:57:53.929Z,19.50
2023-05-26T18:00:20.542Z,19.05
2023-05-26T18:02:47.154Z,18.79
2023-05-26T18:05:13.844Z,18.34
2023-05-26T18:07:40.456Z,17.93
2023-05-26T18:10:07.749Z,17.63
2023-05-26T18:12:34.326Z,17.46
2023-05-26T18:15:02.275Z,17.20
2023-05-26T18:17:28.834Z,16.95
2023-05-26T18:19:55.437Z,16.89
2023-05-26T18:22:21.999Z,16.72
2023-05-26T18:24:48.684Z,16.56
2023-05-26T18:27:15.410Z,16.32
2023-05-26T18:29:41.945Z,16.19
2023-05-26T18:32:09.855Z,16.04
2023-05-26T18:34:36.495Z,15.86
2023-05-26T18:37:03.017Z,15.65
2023-05-26T18:39:30.658Z,15.57
2023-05-26T18:41:57.267Z,15.48
2023-05-26T18:44:23.857Z,15.30
2023-05-26T18:46:50.440Z,15.22
2023-05-26T18:49:18.364Z,15.07
2023-05-26T18:51:44.859Z,14.97
2023-05-26T18:54:11.470Z,14.78
2023-05-26T18:56:38.038Z,14.68
2023-05-26T18:59:04.613Z,14.58
2023-05-26T19:01:31.344Z,14.44
2023-05-26T19:03:59.339Z,14.41
2023-05-26T19:06:27.264Z,14.31
2023-05-26T19:08:53.784Z,14.21
2023-05-26T19:11:20.363Z,14.07
2023-05-26T19:13:46.939Z,13.91
2023-05-26T19:16:13.534Z,13.84
2023-05-26T19:18:40.138Z,13.70
2023-05-26T19:21:06.697Z,13.62
2023-05-26T19:23:34.648Z,13.53
2023-05-26T19:26:01.199Z,13.45
2023-05-26T19:28:27.727Z,13.28
2023-05-26T19:30:54.318Z,13.24
2023-05-26T19:33:21.180Z,13.14
2023-05-26T19:35:48.609Z,13.04
2023-05-26T19:38:15.306Z,12.85
2023-05-26T19:40:43.357Z,12.81
2023-05-26T19:43:10.030Z,12.70
2023-05-26T19:45:36.683Z,12.60
2023-05-26T19:48:03.587Z,12.47
2023-05-26T19:50:30.290Z,12.32
2023-05-26T19:52:58.017Z,12.22
2023-05-26T19:55:24.548Z,12.08
2023-05-26T19:57:52.488Z,12.00
2023-05-26T20:00:19.139Z,11.92
2023-05-26T20:02:45.986Z,11.75
2023-05-26T20:05:12.616Z,11.67
2023-05-26T20:07:39.335Z,11.55
2023-05-26T20:10:06.575Z,11.36
2023-05-26T20:12:33.328Z,11.18
2023-05-26T20:15:01.278Z,11.07
2023-05-26T20:17:28.129Z,10.96
2023-05-26T20:20:11.744Z,10.87
2023-05-26T20:22:40.361Z,10.77
2023-05-26T20:25:07.819Z,10.64
2023-05-26T20:27:34.523Z,10.58
2023-05-26T20:30:02.454Z,10.52
2023-05-26T20:32:29.174Z,10.49
2023-05-26T20:34:55.769Z,10.39
2023-05-26T20:37:22.358Z,10.32
2023-05-26T20:39:48.881Z,10.19
2023-05-26T20:42:15.707Z,10.15
2023-05-26T20:44:42.299Z,10.02
2023-05-26T20:47:10.381Z,9.94
2023-05-26T20:49:36.948Z,9.91
2023-05-26T20:52:03.839Z,9.78
2023-05-26T20:54:30.517Z,9.67
2023-05-26T20:56:57.029Z,9.61
2023-05-26T20:59:23.820Z,9.54
2023-05-26T21:01:50.388Z,9.48
2023-05-26T21:04:18.496Z,9.37
2023-05-26T21:06:44.994Z,9.33
2023-05-26T21:09:11.542Z,9.19
2023-05-26T21:11:38.166Z,9.07
2023-05-26T21:14:04.729Z,9.06
2023-05-26T21:16:31.323Z,8.95
2023-05-26T21:18:57.892Z,8.80
2023-05-26T21:21:25.811Z,8.73
2023-05-26T21:23:52.334Z,8.65
2023-05-26T21:26:18.910Z,8.57
2023-05-26T21:28:45.430Z,8.47
2023-05-26T21:31:12.007Z,8.43
2023-05-26T21:33:38.569Z,8.35
2023-05-26T21:36:05.587Z,8.29
2023-05-26T21:38:33.694Z,8.21
2023-05-26T21:41:00.241Z,8.17
2023-05-26T21:43:26.966Z,8.09
2023-05-26T21:45:53.578Z,8.02
2023-05-26T21:48:20.127Z,7.97
2023-05-26T21:50:46.763Z,7.96
2023-05-26T21:53:13.413Z,7.91
2023-05-26T21:55:41.425Z,7.84
2023-05-26T21:58:08.153Z,7.81
2023-05-26T22:00:34.972Z,7.77
2023-05-26T22:03:01.893Z,7.72
2023-05-26T22:05:28.551Z,7.62
2023-05-26T22:07:55.122Z,7.56
2023-05-26T22:10:21.627Z,7.47
2023-05-26T22:12:49.748Z,7.46
2023-05-26T22:15:16.353Z,7.34
2023-05-26T22:17:42.965Z,7.33
2023-05-26T22:20:10.312Z,7.31
2023-05-26T22:22:36.963Z,7.25
2023-05-26T22:25:03.934Z,7.19
2023-05-26T22:27:30.677Z,7.12
2023-05-26T22:29:58.531Z,7.07
2023-05-26T22:32:25.130Z,7.02
2023-05-26T22:34:51.828Z,6.99
2023-05-26T22:37:18.362Z,6.93
2023-05-26T22:39:44.885Z,6.87
2023-05-26T22:42:11.367Z,6.80
2023-05-26T22:44:38.590Z,6.79
2023-05-26T22:47:06.662Z,6.75
2023-05-26T22:49:33.443Z,6.69
2023-05-26T22:52:00.170Z,6.60
2023-05-26T22:54:26.737Z,6.54
2023-05-26T22:56:53.293Z,6.50
2023-05-26T22:59:19.782Z,6.48
2023-05-26T23:01:46.370Z,6.40
2023-05-26T23:04:14.314Z,6.30
2023-05-26T23:06:41.102Z,6.30
2023-05-26T23:09:07.652Z,6.26
2023-05-26T23:11:34.343Z,6.22
2023-05-26T23:14:00.877Z,6.19
2023-05-26T23:16:27.445Z,6.09
2023-05-26T23:18:53.981Z,6.06
2023-05-26T23:21:22.148Z,6.04
2023-05-26T23:23:48.832Z,6.00
2023-05-26T23:26:15.370Z,5.98
2023-05-26T23:28:41.978Z,5.95
2023-05-26T23:31:08.518Z,5.86
2023-05-26T23:33:35.085Z,5.80
2023-05-26T23:36:01.644Z,5.81
2023-05-26T23:38:29.558Z,5.77
2023-05-26T23:40:56.169Z,5.69
2023-05-26T23:43:22.783Z,5.60
2023-05-26T23:45:49.503Z,5.55
2023-05-26T23:48:16.182Z,5.53
2023-05-26T23:50:42.757Z,5.48
2023-05-26T23:53:10.193Z,5.47
2023-05-26T23:55:38.523Z,5.42
2023-05-26T23:58:05.038Z,5.41
